sensor_id;sensor_type;location;lat;lon;timestamp;temperature;humidity
296;DHT22;132;48.770;9.200;2023-02-28T00:00:33;-1.00;1.00
296;DHT22;132;48.770;9.200;2023-02-28T00:03:00;-1.00;1.00
296;DHT22;132;48.770;9.200;2023-02-28T00:05:28;-1.10;1.00
296;DHT22;132;48.770;9.200;2023-02-28T00:07:55;-1.10;1.00
296;DHT22;132;48.770;9.200;2023-02-28T00:10:24;-1.20;1.00
296;DHT22;132;48.770;9.200;2023-02-28T00:12:51;-1.10;1.00
296;DHT22;132;48.770;9.200;2023-02-28T00:15:18;-1.20;1.00
296;DHT22;132;48.770;9.200;2023-02-28T00:17:45;-0.30;1.00
296;DHT22;132;48.770;9.200;2023-02-28T00:20:12;-1.20;1.00
296;DHT22;132;48.770;9.200;2023-02-28T00:22:41;-1.20;1.00
296;DHT22;132;48.770;9.200;2023-02-28T00:25:16;-1.20;1.00
296;DHT22;132;48.770;9.200;2023-02-28T00:27:44;-1.10;1.00
296;DHT22;132;48.770;9.200;2023-02-28T00:30:13;-1.20;1.00
296;DHT22;132;48.770;9.200;2023-02-28T00:32:39;-1.20;1.00
296;DHT22;132;48.770;9.200;2023-02-28T00:35:07;-1.20;1.00
296;DHT22;132;48.770;9.200;2023-02-28T00:37:34;-1.20;1.00
296;DHT22;132;48.770;9.200;2023-02-28T00:40:00;-1.10;1.00
296;DHT22;132;48.770;9.200;2023-02-28T00:42:26;-1.30;1.00
296;DHT22;132;48.770;9.200;2023-02-28T00:44:53;-1.30;1.00
296;DHT22;132;48.770;9.200;2023-02-28T00:47:20;-1.30;1.00
296;DHT22;132;48.770;9.200;2023-02-28T00:49:46;-1.30;1.00
296;DHT22;132;48.770;9.200;2023-02-28T00:52:12;-1.30;1.00
296;DHT22;132;48.770;9.200;2023-02-28T00:54:39;-1.30;1.00
296;DHT22;132;48.770;9.200;2023-02-28T00:57:07;-1.30;1.00
296;DHT22;132;48.770;9.200;2023-02-28T00:59:33;-1.40;1.00
296;DHT22;132;48.770;9.200;2023-02-28T01:02:00;-1.30;1.00
296;DHT22;132;48.770;9.200;2023-02-28T01:04:26;-1.50;1.00
296;DHT22;132;48.770;9.200;2023-02-28T01:06:52;-1.20;1.00
296;DHT22;132;48.770;9.200;2023-02-28T01:09:19;-1.40;1.00
296;DHT22;132;48.770;9.200;2023-02-28T01:11:45;-1.40;1.00
296;DHT22;132;48.770;9.200;2023-02-28T01:14:16;-1.40;1.00
296;DHT22;132;48.770;9.200;2023-02-28T01:16:45;-1.50;1.00
296;DHT22;132;48.770;9.200;2023-02-28T01:19:12;-1.60;1.00
296;DHT22;132;48.770;9.200;2023-02-28T01:21:39;-1.80;1.00
296;DHT22;132;48.770;9.200;2023-02-28T01:24:06;-1.70;1.00
296;DHT22;132;48.770;9.200;2023-02-28T01:26:33;-1.40;1.00
296;DHT22;132;48.770;9.200;2023-02-28T01:28:59;-1.50;1.00
296;DHT22;132;48.770;9.200;2023-02-28T01:31:26;-1.50;1.00
296;DHT22;132;48.770;9.200;2023-02-28T01:33:52;-1.60;1.00
296;DHT22;132;48.770;9.200;2023-02-28T01:36:22;-1.60;1.00
296;DHT22;132;48.770;9.200;2023-02-28T01:38:48;-1.60;1.00
296;DHT22;132;48.770;9.200;2023-02-28T01:46:12;-1.50;1.00
296;DHT22;132;48.770;9.200;2023-02-28T01:48:44;-1.50;1.00
296;DHT22;132;48.770;9.200;2023-02-28T01:51:16;-1.50;1.00
296;DHT22;132;48.770;9.200;2023-02-28T01:53:48;-1.60;1.00
296;DHT22;132;48.770;9.200;2023-02-28T01:56:20;-1.00;1.00
296;DHT22;132;48.770;9.200;2023-02-28T01:58:51;-1.30;1.00
296;DHT22;132;48.770;9.200;2023-02-28T02:01:19;-1.50;1.00
296;DHT22;132;48.770;9.200;2023-02-28T02:03:53;-1.50;1.00
296;DHT22;132;48.770;9.200;2023-02-28T02:06:29;-1.50;1.00
296;DHT22;132;48.770;9.200;2023-02-28T02:08:56;-1.50;1.00
296;DHT22;132;48.770;9.200;2023-02-28T02:11:24;-1.40;1.00
296;DHT22;132;48.770;9.200;2023-02-28T02:17:04;-1.10;1.00
296;DHT22;132;48.770;9.200;2023-02-28T02:25:51;-1.40;1.00
296;DHT22;132;48.770;9.200;2023-02-28T02:39:14;-1.20;1.00
296;DHT22;132;48.770;9.200;2023-02-28T02:41:53;-1.20;1.00
296;DHT22;132;48.770;9.200;2023-02-28T02:44:30;-1.10;1.00
296;DHT22;132;48.770;9.200;2023-02-28T02:47:03;-1.20;1.00
296;DHT22;132;48.770;9.200;2023-02-28T02:49:32;-1.30;1.00
296;DHT22;132;48.770;9.200;2023-02-28T02:52:06;-1.30;1.00
296;DHT22;132;48.770;9.200;2023-02-28T02:54:40;-1.20;1.00
296;DHT22;132;48.770;9.200;2023-02-28T02:57:14;-1.20;1.00
296;DHT22;132;48.770;9.200;2023-02-28T02:59:42;-1.20;1.00
296;DHT22;132;48.770;9.200;2023-02-28T03:02:12;-1.20;1.00
296;DHT22;132;48.770;9.200;2023-02-28T03:04:48;-1.30;1.00
296;DHT22;132;48.770;9.200;2023-02-28T03:07:16;-1.20;1.00
296;DHT22;132;48.770;9.200;2023-02-28T03:09:51;-1.20;1.00
296;DHT22;132;48.770;9.200;2023-02-28T03:12:18;-1.20;1.00
296;DHT22;132;48.770;9.200;2023-02-28T03:15:20;-1.20;1.00
296;DHT22;132;48.770;9.200;2023-02-28T03:20:34;-1.20;1.00
296;DHT22;132;48.770;9.200;2023-02-28T03:23:13;-1.10;1.00
296;DHT22;132;48.770;9.200;2023-02-28T03:26:02;-1.20;1.00
296;DHT22;132;48.770;9.200;2023-02-28T03:28:37;-1.10;1.00
296;DHT22;132;48.770;9.200;2023-02-28T03:31:07;-1.10;1.00
296;DHT22;132;48.770;9.200;2023-02-28T03:33:40;-1.10;1.00
296;DHT22;132;48.770;9.200;2023-02-28T03:36:14;-1.00;1.00
296;DHT22;132;48.770;9.200;2023-02-28T03:38:48;-1.10;1.00
296;DHT22;132;48.770;9.200;2023-02-28T03:41:26;-1.10;1.00
296;DHT22;132;48.770;9.200;2023-02-28T03:44:15;-1.10;1.00
296;DHT22;132;48.770;9.200;2023-02-28T03:46:57;-1.00;1.00
296;DHT22;132;48.770;9.200;2023-02-28T03:49:43;-1.00;1.00
296;DHT22;132;48.770;9.200;2023-02-28T03:52:11;-0.90;1.00
296;DHT22;132;48.770;9.200;2023-02-28T03:54:43;-1.10;1.00
296;DHT22;132;48.770;9.200;2023-02-28T04:00:20;-0.90;1.00
296;DHT22;132;48.770;9.200;2023-02-28T04:02:47;-0.90;1.00
296;DHT22;132;48.770;9.200;2023-02-28T04:05:21;-0.90;1.00
296;DHT22;132;48.770;9.200;2023-02-28T04:07:48;-0.90;1.00
296;DHT22;132;48.770;9.200;2023-02-28T04:10:15;-0.80;1.00
296;DHT22;132;48.770;9.200;2023-02-28T04:12:42;-0.90;1.00
296;DHT22;132;48.770;9.200;2023-02-28T04:15:08;-1.00;1.00
296;DHT22;132;48.770;9.200;2023-02-28T04:17:36;-0.80;1.00
296;DHT22;132;48.770;9.200;2023-02-28T04:20:03;-0.90;1.00
296;DHT22;132;48.770;9.200;2023-02-28T04:22:35;-0.80;1.00
296;DHT22;132;48.770;9.200;2023-02-28T04:25:03;-0.80;1.00
296;DHT22;132;48.770;9.200;2023-02-28T04:27:29;-0.70;1.00
296;DHT22;132;48.770;9.200;2023-02-28T04:29:55;-0.90;1.00
296;DHT22;132;48.770;9.200;2023-02-28T04:32:22;-1.00;1.00
296;DHT22;132;48.770;9.200;2023-02-28T04:34:48;-0.90;1.00
296;DHT22;132;48.770;9.200;2023-02-28T04:37:14;-0.40;1.00
296;DHT22;132;48.770;9.200;2023-02-28T04:39:41;-0.70;1.00
296;DHT22;132;48.770;9.200;2023-02-28T04:42:08;-0.80;1.00
296;DHT22;132;48.770;9.200;2023-02-28T04:44:35;-0.80;1.00
296;DHT22;132;48.770;9.200;2023-02-28T04:47:01;-0.80;1.00
296;DHT22;132;48.770;9.200;2023-02-28T04:49:28;-0.50;1.00
296;DHT22;132;48.770;9.200;2023-02-28T04:51:54;-0.70;1.00
296;DHT22;132;48.770;9.200;2023-02-28T04:54:21;-0.80;1.00
296;DHT22;132;48.770;9.200;2023-02-28T04:56:48;-0.80;1.00
296;DHT22;132;48.770;9.200;2023-02-28T04:59:15;-0.70;1.00
296;DHT22;132;48.770;9.200;2023-02-28T05:01:46;-0.70;1.00
296;DHT22;132;48.770;9.200;2023-02-28T05:04:12;-0.70;1.00
296;DHT22;132;48.770;9.200;2023-02-28T05:06:39;-0.80;1.00
296;DHT22;132;48.770;9.200;2023-02-28T05:09:05;-0.80;1.00
296;DHT22;132;48.770;9.200;2023-02-28T05:11:33;-0.70;1.00
296;DHT22;132;48.770;9.200;2023-02-28T05:14:02;-0.90;1.00
296;DHT22;132;48.770;9.200;2023-02-28T05:16:30;-0.70;1.00
296;DHT22;132;48.770;9.200;2023-02-28T05:18:57;-0.90;1.00
296;DHT22;132;48.770;9.200;2023-02-28T05:21:27;-0.50;1.00
296;DHT22;132;48.770;9.200;2023-02-28T05:23:54;-0.80;1.00
296;DHT22;132;48.770;9.200;2023-02-28T05:26:22;-0.80;1.00
296;DHT22;132;48.770;9.200;2023-02-28T05:28:48;-0.80;1.00
296;DHT22;132;48.770;9.200;2023-02-28T05:31:15;-0.70;1.00
296;DHT22;132;48.770;9.200;2023-02-28T05:33:41;-0.70;1.00
296;DHT22;132;48.770;9.200;2023-02-28T05:36:08;-0.80;1.00
296;DHT22;132;48.770;9.200;2023-02-28T05:38:35;-0.60;1.00
296;DHT22;132;48.770;9.200;2023-02-28T05:41:08;-0.70;1.00
296;DHT22;132;48.770;9.200;2023-02-28T05:43:35;-0.60;1.00
296;DHT22;132;48.770;9.200;2023-02-28T05:46:04;-0.60;1.00
296;DHT22;132;48.770;9.200;2023-02-28T05:48:32;-0.60;1.00
296;DHT22;132;48.770;9.200;2023-02-28T05:50:59;-0.70;1.00
296;DHT22;132;48.770;9.200;2023-02-28T05:53:25;-0.70;1.00
296;DHT22;132;48.770;9.200;2023-02-28T05:55:52;-0.70;1.00
296;DHT22;132;48.770;9.200;2023-02-28T05:58:19;-0.70;1.00
296;DHT22;132;48.770;9.200;2023-02-28T06:00:45;-0.80;1.00
296;DHT22;132;48.770;9.200;2023-02-28T06:03:11;-0.70;1.00
296;DHT22;132;48.770;9.200;2023-02-28T06:05:38;-0.70;1.00
296;DHT22;132;48.770;9.200;2023-02-28T06:08:05;-0.70;1.00
296;DHT22;132;48.770;9.200;2023-02-28T06:10:34;-0.60;1.00
296;DHT22;132;48.770;9.200;2023-02-28T06:13:02;-0.60;1.00
296;DHT22;132;48.770;9.200;2023-02-28T06:15:29;-0.60;1.00
296;DHT22;132;48.770;9.200;2023-02-28T06:17:57;-0.60;1.00
296;DHT22;132;48.770;9.200;2023-02-28T06:20:26;-0.70;1.00
296;DHT22;132;48.770;9.200;2023-02-28T06:22:58;1.10;1.00
296;DHT22;132;48.770;9.200;2023-02-28T06:25:26;-0.50;1.00
296;DHT22;132;48.770;9.200;2023-02-28T06:27:54;-0.40;1.00
296;DHT22;132;48.770;9.200;2023-02-28T06:30:21;-0.60;1.00
296;DHT22;132;48.770;9.200;2023-02-28T06:32:53;-0.50;1.00
296;DHT22;132;48.770;9.200;2023-02-28T06:35:20;-0.90;1.00
296;DHT22;132;48.770;9.200;2023-02-28T06:37:47;-0.80;1.00
296;DHT22;132;48.770;9.200;2023-02-28T06:40:13;-0.90;1.00
296;DHT22;132;48.770;9.200;2023-02-28T06:42:40;-0.40;1.00
296;DHT22;132;48.770;9.200;2023-02-28T06:45:06;-0.50;1.00
296;DHT22;132;48.770;9.200;2023-02-28T06:47:36;-0.40;1.00
296;DHT22;132;48.770;9.200;2023-02-28T06:50:03;-0.60;1.00
296;DHT22;132;48.770;9.200;2023-02-28T06:52:32;-0.40;1.00
296;DHT22;132;48.770;9.200;2023-02-28T06:54:59;2.00;1.00
296;DHT22;132;48.770;9.200;2023-02-28T06:57:30;1.80;1.00
296;DHT22;132;48.770;9.200;2023-02-28T07:00:00;-0.50;1.00
296;DHT22;132;48.770;9.200;2023-02-28T07:02:27;-0.30;1.00
296;DHT22;132;48.770;9.200;2023-02-28T07:04:54;-0.30;1.00
296;DHT22;132;48.770;9.200;2023-02-28T07:07:20;-0.10;1.00
296;DHT22;132;48.770;9.200;2023-02-28T07:09:46;-0.10;1.00
296;DHT22;132;48.770;9.200;2023-02-28T07:12:13;-0.10;1.00
296;DHT22;132;48.770;9.200;2023-02-28T07:14:39;-0.10;1.00
296;DHT22;132;48.770;9.200;2023-02-28T07:17:10;-0.20;1.00
296;DHT22;132;48.770;9.200;2023-02-28T07:19:39;2.70;1.00
296;DHT22;132;48.770;9.200;2023-02-28T07:22:06;0.00;1.00
296;DHT22;132;48.770;9.200;2023-02-28T07:24:36;-0.50;1.00
296;DHT22;132;48.770;9.200;2023-02-28T07:27:02;-0.10;1.00
296;DHT22;132;48.770;9.200;2023-02-28T07:29:29;-0.20;1.00
296;DHT22;132;48.770;9.200;2023-02-28T07:31:56;0.00;1.00
296;DHT22;132;48.770;9.200;2023-02-28T07:34:22;-0.10;1.00
296;DHT22;132;48.770;9.200;2023-02-28T07:36:51;0.00;1.00
296;DHT22;132;48.770;9.200;2023-02-28T07:39:20;-0.10;1.00
296;DHT22;132;48.770;9.200;2023-02-28T07:41:47;-0.50;1.00
296;DHT22;132;48.770;9.200;2023-02-28T07:44:13;0.10;1.00
296;DHT22;132;48.770;9.200;2023-02-28T07:46:40;-0.20;1.00
296;DHT22;132;48.770;9.200;2023-02-28T07:49:07;0.40;1.00
296;DHT22;132;48.770;9.200;2023-02-28T07:51:33;0.00;1.00
296;DHT22;132;48.770;9.200;2023-02-28T07:54:00;0.00;1.00
296;DHT22;132;48.770;9.200;2023-02-28T07:56:26;0.30;1.00
296;DHT22;132;48.770;9.200;2023-02-28T07:58:52;0.30;1.00
296;DHT22;132;48.770;9.200;2023-02-28T08:01:19;0.40;1.00
296;DHT22;132;48.770;9.200;2023-02-28T08:03:46;1.00;1.00
296;DHT22;132;48.770;9.200;2023-02-28T08:06:20;0.40;1.00
296;DHT22;132;48.770;9.200;2023-02-28T08:08:47;0.90;1.00
296;DHT22;132;48.770;9.200;2023-02-28T08:11:14;0.20;1.00
296;DHT22;132;48.770;9.200;2023-02-28T08:13:44;0.40;1.00
296;DHT22;132;48.770;9.200;2023-02-28T08:17:16;0.20;1.00
296;DHT22;132;48.770;9.200;2023-02-28T08:19:45;0.50;1.00
296;DHT22;132;48.770;9.200;2023-02-28T08:22:12;3.00;1.00
296;DHT22;132;48.770;9.200;2023-02-28T08:24:39;0.60;1.00
296;DHT22;132;48.770;9.200;2023-02-28T08:27:07;0.60;1.00
296;DHT22;132;48.770;9.200;2023-02-28T08:29:37;0.60;1.00
296;DHT22;132;48.770;9.200;2023-02-28T08:32:05;0.30;1.00
296;DHT22;132;48.770;9.200;2023-02-28T08:34:32;0.40;1.00
296;DHT22;132;48.770;9.200;2023-02-28T08:36:58;0.50;1.00
296;DHT22;132;48.770;9.200;2023-02-28T08:39:25;0.60;1.00
296;DHT22;132;48.770;9.200;2023-02-28T08:41:51;0.60;1.00
296;DHT22;132;48.770;9.200;2023-02-28T08:44:18;0.30;1.00
296;DHT22;132;48.770;9.200;2023-02-28T08:46:44;0.30;1.00
296;DHT22;132;48.770;9.200;2023-02-28T08:49:10;0.40;1.00
296;DHT22;132;48.770;9.200;2023-02-28T08:51:38;0.60;1.00
296;DHT22;132;48.770;9.200;2023-02-28T08:54:05;0.60;1.00
296;DHT22;132;48.770;9.200;2023-02-28T08:56:31;2.00;1.00
296;DHT22;132;48.770;9.200;2023-02-28T08:58:58;0.70;1.00
296;DHT22;132;48.770;9.200;2023-02-28T09:01:27;0.60;1.00
296;DHT22;132;48.770;9.200;2023-02-28T09:03:54;0.60;1.00
296;DHT22;132;48.770;9.200;2023-02-28T09:06:23;0.70;1.00
296;DHT22;132;48.770;9.200;2023-02-28T09:08:51;0.40;1.00
296;DHT22;132;48.770;9.200;2023-02-28T09:11:18;1.80;1.00
296;DHT22;132;48.770;9.200;2023-02-28T09:13:46;0.60;1.00
296;DHT22;132;48.770;9.200;2023-02-28T09:16:14;-0.10;1.00
296;DHT22;132;48.770;9.200;2023-02-28T09:18:42;0.80;1.00
296;DHT22;132;48.770;9.200;2023-02-28T09:21:11;0.90;1.00
296;DHT22;132;48.770;9.200;2023-02-28T09:23:45;0.80;1.00
296;DHT22;132;48.770;9.200;2023-02-28T09:26:26;0.80;1.00
296;DHT22;132;48.770;9.200;2023-02-28T09:28:53;0.30;1.00
296;DHT22;132;48.770;9.200;2023-02-28T09:31:24;1.10;1.00
296;DHT22;132;48.770;9.200;2023-02-28T09:33:54;1.20;1.00
296;DHT22;132;48.770;9.200;2023-02-28T09:36:23;1.60;1.00
296;DHT22;132;48.770;9.200;2023-02-28T09:38:49;2.30;1.00
296;DHT22;132;48.770;9.200;2023-02-28T09:41:21;1.30;1.00
296;DHT22;132;48.770;9.200;2023-02-28T09:43:54;1.30;1.00
296;DHT22;132;48.770;9.200;2023-02-28T09:46:48;1.40;1.00
296;DHT22;132;48.770;9.200;2023-02-28T09:49:18;1.50;1.00
296;DHT22;132;48.770;9.200;2023-02-28T09:52:04;1.40;1.00
296;DHT22;132;48.770;9.200;2023-02-28T09:54:32;1.80;1.00
296;DHT22;132;48.770;9.200;2023-02-28T09:57:25;1.50;1.00
296;DHT22;132;48.770;9.200;2023-02-28T10:00:27;1.70;1.00
296;DHT22;132;48.770;9.200;2023-02-28T10:05:54;1.90;1.00
296;DHT22;132;48.770;9.200;2023-02-28T10:11:17;1.80;1.00
296;DHT22;132;48.770;9.200;2023-02-28T10:16:51;1.90;1.00
296;DHT22;132;48.770;9.200;2023-02-28T10:19:32;2.10;1.00
296;DHT22;132;48.770;9.200;2023-02-28T10:22:33;3.10;1.00
296;DHT22;132;48.770;9.200;2023-02-28T10:25:01;2.30;1.00
296;DHT22;132;48.770;9.200;2023-02-28T10:27:30;3.30;1.00
296;DHT22;132;48.770;9.200;2023-02-28T10:29:59;2.20;1.00
296;DHT22;132;48.770;9.200;2023-02-28T10:32:27;2.20;1.00
296;DHT22;132;48.770;9.200;2023-02-28T10:35:22;2.60;1.00
296;DHT22;132;48.770;9.200;2023-02-28T10:37:58;2.40;1.00
296;DHT22;132;48.770;9.200;2023-02-28T10:40:34;2.80;1.00
296;DHT22;132;48.770;9.200;2023-02-28T10:43:17;2.80;1.00
296;DHT22;132;48.770;9.200;2023-02-28T10:48:45;2.90;1.00
296;DHT22;132;48.770;9.200;2023-02-28T10:51:16;3.10;1.00
296;DHT22;132;48.770;9.200;2023-02-28T10:53:52;3.00;1.00
296;DHT22;132;48.770;9.200;2023-02-28T10:56:24;2.60;1.00
296;DHT22;132;48.770;9.200;2023-02-28T10:58:57;2.80;1.00
296;DHT22;132;48.770;9.200;2023-02-28T11:04:01;2.60;1.00
296;DHT22;132;48.770;9.200;2023-02-28T11:06:32;2.60;1.00
296;DHT22;132;48.770;9.200;2023-02-28T11:11:47;2.70;1.00
296;DHT22;132;48.770;9.200;2023-02-28T11:14:22;2.50;1.00
296;DHT22;132;48.770;9.200;2023-02-28T11:16:51;2.50;1.00
296;DHT22;132;48.770;9.200;2023-02-28T11:19:22;3.50;1.00
296;DHT22;132;48.770;9.200;2023-02-28T11:22:00;6.00;1.00
296;DHT22;132;48.770;9.200;2023-02-28T11:24:36;2.90;1.00
296;DHT22;132;48.770;9.200;2023-02-28T11:27:03;3.00;1.00
296;DHT22;132;48.770;9.200;2023-02-28T11:29:32;2.80;1.00
296;DHT22;132;48.770;9.200;2023-02-28T11:32:20;3.30;1.00
296;DHT22;132;48.770;9.200;2023-02-28T11:35:01;3.20;1.00
296;DHT22;132;48.770;9.200;2023-02-28T11:37:29;3.70;1.00
296;DHT22;132;48.770;9.200;2023-02-28T11:39:57;3.20;1.00
296;DHT22;132;48.770;9.200;2023-02-28T11:45:43;3.20;1.00
296;DHT22;132;48.770;9.200;2023-02-28T11:51:05;3.20;1.00
296;DHT22;132;48.770;9.200;2023-02-28T11:54:47;2.90;1.00
296;DHT22;132;48.770;9.200;2023-02-28T11:57:08;2.80;1.00
296;DHT22;132;48.770;9.200;2023-02-28T12:00:09;2.80;1.00
296;DHT22;132;48.770;9.200;2023-02-28T12:05:23;3.20;1.00
296;DHT22;132;48.770;9.200;2023-02-28T12:13:46;3.30;1.00
296;DHT22;132;48.770;9.200;2023-02-28T12:16:45;3.40;1.00
296;DHT22;132;48.770;9.200;2023-02-28T12:19:21;3.50;1.00
296;DHT22;132;48.770;9.200;2023-02-28T12:22:05;3.60;1.00
296;DHT22;132;48.770;9.200;2023-02-28T12:24:50;3.60;1.00
296;DHT22;132;48.770;9.200;2023-02-28T12:27:23;3.70;1.00
296;DHT22;132;48.770;9.200;2023-02-28T12:30:24;3.40;1.00
296;DHT22;132;48.770;9.200;2023-02-28T12:33:13;3.60;1.00
296;DHT22;132;48.770;9.200;2023-02-28T12:35:54;3.60;1.00
296;DHT22;132;48.770;9.200;2023-02-28T12:38:29;3.50;1.00
296;DHT22;132;48.770;9.200;2023-02-28T12:41:14;3.60;1.00
296;DHT22;132;48.770;9.200;2023-02-28T12:44:00;3.40;1.00
296;DHT22;132;48.770;9.200;2023-02-28T12:46:36;3.70;1.00
296;DHT22;132;48.770;9.200;2023-02-28T12:49:08;3.70;1.00
296;DHT22;132;48.770;9.200;2023-02-28T12:51:36;3.80;1.00
296;DHT22;132;48.770;9.200;2023-02-28T12:54:35;3.90;1.00
296;DHT22;132;48.770;9.200;2023-02-28T12:57:10;4.10;1.00
296;DHT22;132;48.770;9.200;2023-02-28T13:10:44;4.50;1.00
296;DHT22;132;48.770;9.200;2023-02-28T13:13:17;4.40;1.00
296;DHT22;132;48.770;9.200;2023-02-28T13:18:34;4.60;1.00
296;DHT22;132;48.770;9.200;2023-02-28T13:21:04;4.80;1.00
296;DHT22;132;48.770;9.200;2023-02-28T13:26:07;4.80;1.00
296;DHT22;132;48.770;9.200;2023-02-28T13:31:24;5.70;1.00
296;DHT22;132;48.770;9.200;2023-02-28T13:36:27;5.00;1.00
296;DHT22;132;48.770;9.200;2023-02-28T13:39:03;5.10;1.00
296;DHT22;132;48.770;9.200;2023-02-28T14:06:16;5.50;1.00
296;DHT22;132;48.770;9.200;2023-02-28T14:09:15;5.40;1.00
296;DHT22;132;48.770;9.200;2023-02-28T14:11:44;5.40;1.00
296;DHT22;132;48.770;9.200;2023-02-28T14:17:13;5.70;1.00
296;DHT22;132;48.770;9.200;2023-02-28T14:19:44;5.50;1.00
296;DHT22;132;48.770;9.200;2023-02-28T14:30:53;5.70;1.00
296;DHT22;132;48.770;9.200;2023-02-28T14:33:27;5.60;1.00
296;DHT22;132;48.770;9.200;2023-02-28T14:36:20;5.60;1.00
296;DHT22;132;48.770;9.200;2023-02-28T14:39:05;5.70;1.00
296;DHT22;132;48.770;9.200;2023-02-28T14:41:34;5.70;1.00
296;DHT22;132;48.770;9.200;2023-02-28T14:46:41;5.60;1.00
296;DHT22;132;48.770;9.200;2023-02-28T14:49:36;5.70;1.00
296;DHT22;132;48.770;9.200;2023-02-28T14:52:07;5.70;1.00
296;DHT22;132;48.770;9.200;2023-02-28T14:54:38;5.80;1.00
296;DHT22;132;48.770;9.200;2023-02-28T14:57:04;5.70;1.00
296;DHT22;132;48.770;9.200;2023-02-28T14:59:33;5.70;1.00
296;DHT22;132;48.770;9.200;2023-02-28T15:02:21;4.70;1.00
296;DHT22;132;48.770;9.200;2023-02-28T15:05:02;5.70;1.00
296;DHT22;132;48.770;9.200;2023-02-28T15:07:36;5.70;1.00
296;DHT22;132;48.770;9.200;2023-02-28T15:10:23;5.60;1.00
296;DHT22;132;48.770;9.200;2023-02-28T15:13:02;5.70;1.00
296;DHT22;132;48.770;9.200;2023-02-28T15:18:06;5.70;1.00
296;DHT22;132;48.770;9.200;2023-02-28T15:20:35;5.50;1.00
296;DHT22;132;48.770;9.200;2023-02-28T15:23:03;5.20;1.00
296;DHT22;132;48.770;9.200;2023-02-28T15:25:30;5.40;1.00
296;DHT22;132;48.770;9.200;2023-02-28T15:27:57;5.50;1.00
296;DHT22;132;48.770;9.200;2023-02-28T15:30:31;5.30;1.00
296;DHT22;132;48.770;9.200;2023-02-28T15:33:23;5.50;1.00
296;DHT22;132;48.770;9.200;2023-02-28T15:35:49;5.50;1.00
296;DHT22;132;48.770;9.200;2023-02-28T15:38:24;5.40;1.00
296;DHT22;132;48.770;9.200;2023-02-28T15:40:58;5.40;1.00
296;DHT22;132;48.770;9.200;2023-02-28T15:43:32;5.30;1.00
296;DHT22;132;48.770;9.200;2023-02-28T15:46:10;7.10;1.00
296;DHT22;132;48.770;9.200;2023-02-28T15:48:53;5.30;1.00
296;DHT22;132;48.770;9.200;2023-02-28T15:54:23;5.20;1.00
296;DHT22;132;48.770;9.200;2023-02-28T15:56:55;5.20;1.00
296;DHT22;132;48.770;9.200;2023-02-28T15:59:30;5.00;1.00
296;DHT22;132;48.770;9.200;2023-02-28T16:04:36;4.90;1.00
296;DHT22;132;48.770;9.200;2023-02-28T16:07:05;4.80;1.00
296;DHT22;132;48.770;9.200;2023-02-28T16:09:32;4.70;1.00
296;DHT22;132;48.770;9.200;2023-02-28T16:12:02;4.80;1.00
296;DHT22;132;48.770;9.200;2023-02-28T16:14:30;4.70;1.00
296;DHT22;132;48.770;9.200;2023-02-28T16:17:03;4.60;1.00
296;DHT22;132;48.770;9.200;2023-02-28T16:19:30;4.60;1.00
296;DHT22;132;48.770;9.200;2023-02-28T16:21:57;4.50;1.00
296;DHT22;132;48.770;9.200;2023-02-28T16:24:23;4.60;1.00
296;DHT22;132;48.770;9.200;2023-02-28T16:26:52;4.40;1.00
296;DHT22;132;48.770;9.200;2023-02-28T16:29:32;4.40;1.00
296;DHT22;132;48.770;9.200;2023-02-28T16:32:00;4.40;1.00
296;DHT22;132;48.770;9.200;2023-02-28T16:34:27;4.30;1.00
296;DHT22;132;48.770;9.200;2023-02-28T16:36:53;4.40;1.00
296;DHT22;132;48.770;9.200;2023-02-28T16:39:20;4.00;1.00
296;DHT22;132;48.770;9.200;2023-02-28T16:41:47;4.10;1.00
296;DHT22;132;48.770;9.200;2023-02-28T16:46:50;4.00;1.00
296;DHT22;132;48.770;9.200;2023-02-28T16:49:17;3.90;1.00
296;DHT22;132;48.770;9.200;2023-02-28T16:51:43;3.80;1.00
296;DHT22;132;48.770;9.200;2023-02-28T16:54:09;3.80;1.00
296;DHT22;132;48.770;9.200;2023-02-28T16:56:36;4.10;1.00
296;DHT22;132;48.770;9.200;2023-02-28T16:59:04;3.70;1.00
296;DHT22;132;48.770;9.200;2023-02-28T17:01:30;3.60;1.00
296;DHT22;132;48.770;9.200;2023-02-28T17:03:58;3.40;1.00
296;DHT22;132;48.770;9.200;2023-02-28T17:06:27;3.50;1.00
296;DHT22;132;48.770;9.200;2023-02-28T17:08:55;4.00;1.00
296;DHT22;132;48.770;9.200;2023-02-28T17:11:22;3.40;1.00
296;DHT22;132;48.770;9.200;2023-02-28T17:13:48;3.40;1.00
296;DHT22;132;48.770;9.200;2023-02-28T17:16:33;3.30;1.00
296;DHT22;132;48.770;9.200;2023-02-28T17:19:02;3.30;1.00
296;DHT22;132;48.770;9.200;2023-02-28T17:21:30;3.20;1.00
296;DHT22;132;48.770;9.200;2023-02-28T17:23:57;3.00;1.00
296;DHT22;132;48.770;9.200;2023-02-28T17:26:24;3.10;1.00
296;DHT22;132;48.770;9.200;2023-02-28T17:28:52;2.90;1.00
296;DHT22;132;48.770;9.200;2023-02-28T17:31:25;2.90;1.00
296;DHT22;132;48.770;9.200;2023-02-28T17:33:52;2.80;1.00
296;DHT22;132;48.770;9.200;2023-02-28T17:36:23;2.80;1.00
296;DHT22;132;48.770;9.200;2023-02-28T17:38:50;2.80;1.00
296;DHT22;132;48.770;9.200;2023-02-28T17:41:17;2.80;1.00
296;DHT22;132;48.770;9.200;2023-02-28T17:43:44;2.70;1.00
296;DHT22;132;48.770;9.200;2023-02-28T17:46:16;2.70;1.00
296;DHT22;132;48.770;9.200;2023-02-28T17:48:44;2.70;1.00
296;DHT22;132;48.770;9.200;2023-02-28T17:51:13;2.60;1.00
296;DHT22;132;48.770;9.200;2023-02-28T17:53:39;2.60;1.00
296;DHT22;132;48.770;9.200;2023-02-28T17:56:26;3.00;1.00
296;DHT22;132;48.770;9.200;2023-02-28T17:58:54;2.80;1.00
296;DHT22;132;48.770;9.200;2023-02-28T18:01:22;2.60;1.00
296;DHT22;132;48.770;9.200;2023-02-28T18:03:48;2.50;1.00
296;DHT22;132;48.770;9.200;2023-02-28T18:06:27;2.50;1.00
296;DHT22;132;48.770;9.200;2023-02-28T18:08:54;2.40;1.00
296;DHT22;132;48.770;9.200;2023-02-28T18:11:22;2.40;1.00
296;DHT22;132;48.770;9.200;2023-02-28T18:13:51;2.90;1.00
296;DHT22;132;48.770;9.200;2023-02-28T18:16:19;2.20;1.00
296;DHT22;132;48.770;9.200;2023-02-28T18:18:47;2.40;1.00
296;DHT22;132;48.770;9.200;2023-02-28T18:21:15;2.20;1.00
296;DHT22;132;48.770;9.200;2023-02-28T18:23:43;2.20;1.00
296;DHT22;132;48.770;9.200;2023-02-28T18:26:18;2.20;1.00
296;DHT22;132;48.770;9.200;2023-02-28T18:28:45;2.20;1.00
296;DHT22;132;48.770;9.200;2023-02-28T18:31:14;2.20;1.00
296;DHT22;132;48.770;9.200;2023-02-28T18:33:42;2.20;1.00
296;DHT22;132;48.770;9.200;2023-02-28T18:36:09;1.60;1.00
296;DHT22;132;48.770;9.200;2023-02-28T18:38:36;2.40;1.00
296;DHT22;132;48.770;9.200;2023-02-28T18:41:04;2.10;1.00
296;DHT22;132;48.770;9.200;2023-02-28T18:43:33;2.10;1.00
296;DHT22;132;48.770;9.200;2023-02-28T18:46:10;2.00;1.00
296;DHT22;132;48.770;9.200;2023-02-28T18:48:37;2.00;1.00
296;DHT22;132;48.770;9.200;2023-02-28T18:51:13;2.00;1.00
296;DHT22;132;48.770;9.200;2023-02-28T18:53:41;2.00;1.00
296;DHT22;132;48.770;9.200;2023-02-28T18:56:11;1.90;1.00
296;DHT22;132;48.770;9.200;2023-02-28T18:58:41;2.00;1.00
296;DHT22;132;48.770;9.200;2023-02-28T19:01:25;2.20;1.00
296;DHT22;132;48.770;9.200;2023-02-28T19:03:55;2.10;1.00
296;DHT22;132;48.770;9.200;2023-02-28T19:06:22;1.80;1.00
296;DHT22;132;48.770;9.200;2023-02-28T19:08:56;1.80;1.00
296;DHT22;132;48.770;9.200;2023-02-28T19:11:23;1.70;1.00
296;DHT22;132;48.770;9.200;2023-02-28T19:13:49;1.60;1.00
296;DHT22;132;48.770;9.200;2023-02-28T19:16:18;1.60;1.00
296;DHT22;132;48.770;9.200;2023-02-28T19:18:45;1.60;1.00
296;DHT22;132;48.770;9.200;2023-02-28T19:21:13;1.50;1.00
296;DHT22;132;48.770;9.200;2023-02-28T19:23:40;1.50;1.00
296;DHT22;132;48.770;9.200;2023-02-28T19:26:07;1.50;1.00
296;DHT22;132;48.770;9.200;2023-02-28T19:28:35;1.40;1.00
296;DHT22;132;48.770;9.200;2023-02-28T19:31:02;1.50;1.00
296;DHT22;132;48.770;9.200;2023-02-28T19:33:28;1.30;1.00
296;DHT22;132;48.770;9.200;2023-02-28T19:35:57;1.50;1.00
296;DHT22;132;48.770;9.200;2023-02-28T19:38:24;1.30;1.00
296;DHT22;132;48.770;9.200;2023-02-28T19:41:02;1.30;1.00